sensor_id;sensor_type;location;lat;lon;timestamp;temperature;humidity
33328;DHT22;19692;52.998;9.116;2023-06-22T00:01:58;18.00;99.90
33328;DHT22;19692;52.998;9.116;2023-06-22T00:04:24;17.90;99.90
33328;DHT22;19692;52.998;9.116;2023-06-22T00:06:51;17.90;99.90
33328;DHT22;19692;52.998;9.116;2023-06-22T00:09:16;17.90;99.90
33328;DHT22;19692;52.998;9.116;2023-06-22T00:11:42;17.80;99.90
33328;DHT22;19692;52.998;9.116;2023-06-22T00:14:08;17.70;99.90
33328;DHT22;19692;52.998;9.116;2023-06-22T00:16:34;17.70;99.90
33328;DHT22;19692;52.998;9.116;2023-06-22T00:18:59;17.60;99.90
33328;DHT22;19692;52.998;9.116;2023-06-22T00:21:29;17.50;99.90
33328;DHT22;19692;52.998;9.116;2023-06-22T00:23:56;17.40;99.90
33328;DHT22;19692;52.998;9.116;2023-06-22T00:26:22;17.50;99.90
33328;DHT22;19692;52.998;9.116;2023-06-22T00:28:48;17.50;99.90
33328;DHT22;19692;52.998;9.116;2023-06-22T00:31:14;17.60;99.90
33328;DHT22;19692;52.998;9.116;2023-06-22T00:33:39;17.60;99.90
33328;DHT22;19692;52.998;9.116;2023-06-22T00:36:06;17.70;99.90
33328;DHT22;19692;52.998;9.116;2023-06-22T00:38:33;17.60;99.90
33328;DHT22;19692;52.998;9.116;2023-06-22T00:40:59;17.60;99.90
33328;DHT22;19692;52.998;9.116;2023-06-22T00:43:25;17.60;99.90
33328;DHT22;19692;52.998;9.116;2023-06-22T00:45:50;17.60;99.90
33328;DHT22;19692;52.998;9.116;2023-06-22T00:48:16;17.50;99.90
33328;DHT22;19692;52.998;9.116;2023-06-22T00:50:42;17.50;99.90
33328;DHT22;19692;52.998;9.116;2023-06-22T00:53:09;17.40;99.90
33328;DHT22;19692;52.998;9.116;2023-06-22T00:55:44;17.60;99.90
33328;DHT22;19692;52.998;9.116;2023-06-22T00:58:12;17.70;99.90
33328;DHT22;19692;52.998;9.116;2023-06-22T01:00:40;17.70;99.90
33328;DHT22;19692;52.998;9.116;2023-06-22T01:03:06;17.70;99.90
33328;DHT22;19692;52.998;9.116;2023-06-22T01:05:36;17.70;99.90
33328;DHT22;19692;52.998;9.116;2023-06-22T01:10:53;17.70;99.90
33328;DHT22;19692;52.998;9.116;2023-06-22T01:16:23;17.70;99.90
33328;DHT22;19692;52.998;9.116;2023-06-22T01:18:53;17.60;99.90
33328;DHT22;19692;52.998;9.116;2023-06-22T01:21:23;17.50;99.90
33328;DHT22;19692;52.998;9.116;2023-06-22T01:24:01;17.50;99.90
33328;DHT22;19692;52.998;9.116;2023-06-22T01:29:21;17.40;99.90
33328;DHT22;19692;52.998;9.116;2023-06-22T01:31:48;17.50;99.90
33328;DHT22;19692;52.998;9.116;2023-06-22T01:34:15;17.50;99.90
33328;DHT22;19692;52.998;9.116;2023-06-22T01:36:42;17.40;99.90
33328;DHT22;19692;52.998;9.116;2023-06-22T01:39:09;17.20;99.90
33328;DHT22;19692;52.998;9.116;2023-06-22T01:41:37;17.20;99.90
33328;DHT22;19692;52.998;9.116;2023-06-22T01:44:07;17.10;99.90
33328;DHT22;19692;52.998;9.116;2023-06-22T01:46:35;17.10;99.90
33328;DHT22;19692;52.998;9.116;2023-06-22T01:49:05;17.00;99.90
33328;DHT22;19692;52.998;9.116;2023-06-22T01:51:31;17.00;99.90
33328;DHT22;19692;52.998;9.116;2023-06-22T01:53:57;17.00;99.90
33328;DHT22;19692;52.998;9.116;2023-06-22T01:56:23;17.00;99.90
33328;DHT22;19692;52.998;9.116;2023-06-22T01:59:15;17.00;99.90
33328;DHT22;19692;52.998;9.116;2023-06-22T02:01:49;17.00;99.90
33328;DHT22;19692;52.998;9.116;2023-06-22T02:04:23;17.10;99.90
33328;DHT22;19692;52.998;9.116;2023-06-22T02:06:55;17.20;99.90
33328;DHT22;19692;52.998;9.116;2023-06-22T02:09:23;17.30;99.90
33328;DHT22;19692;52.998;9.116;2023-06-22T02:11:51;17.30;99.90
33328;DHT22;19692;52.998;9.116;2023-06-22T02:14:21;17.30;99.90
33328;DHT22;19692;52.998;9.116;2023-06-22T02:16:47;17.40;99.90
33328;DHT22;19692;52.998;9.116;2023-06-22T02:19:13;17.40;99.90
33328;DHT22;19692;52.998;9.116;2023-06-22T02:21:41;17.40;99.90
33328;DHT22;19692;52.998;9.116;2023-06-22T02:24:07;17.50;99.90
33328;DHT22;19692;52.998;9.116;2023-06-22T02:26:32;17.60;99.90
33328;DHT22;19692;52.998;9.116;2023-06-22T02:28:58;17.60;99.90
33328;DHT22;19692;52.998;9.116;2023-06-22T02:31:24;17.60;99.90
33328;DHT22;19692;52.998;9.116;2023-06-22T02:33:58;17.60;99.90
33328;DHT22;19692;52.998;9.116;2023-06-22T02:36:24;17.60;99.90
33328;DHT22;19692;52.998;9.116;2023-06-22T02:38:52;17.50;99.90
33328;DHT22;19692;52.998;9.116;2023-06-22T02:41:18;17.40;99.90
33328;DHT22;19692;52.998;9.116;2023-06-22T02:43:47;17.40;99.90
33328;DHT22;19692;52.998;9.116;2023-06-22T02:46:13;17.40;99.90
33328;DHT22;19692;52.998;9.116;2023-06-22T02:48:40;17.40;99.90
33328;DHT22;19692;52.998;9.116;2023-06-22T02:51:06;17.40;99.90
33328;DHT22;19692;52.998;9.116;2023-06-22T02:53:32;17.50;99.90
33328;DHT22;19692;52.998;9.116;2023-06-22T02:55:58;17.40;99.90
33328;DHT22;19692;52.998;9.116;2023-06-22T02:58:24;17.40;99.90
33328;DHT22;19692;52.998;9.116;2023-06-22T03:00:50;17.40;99.90
33328;DHT22;19692;52.998;9.116;2023-06-22T03:03:21;17.40;99.90
33328;DHT22;19692;52.998;9.116;2023-06-22T03:05:47;17.50;99.90
33328;DHT22;19692;52.998;9.116;2023-06-22T03:08:13;17.40;99.90
33328;DHT22;19692;52.998;9.116;2023-06-22T03:10:38;17.40;99.90
33328;DHT22;19692;52.998;9.116;2023-06-22T03:13:04;17.50;99.90
33328;DHT22;19692;52.998;9.116;2023-06-22T03:15:30;17.50;99.90
33328;DHT22;19692;52.998;9.116;2023-06-22T03:17:56;17.50;99.90
33328;DHT22;19692;52.998;9.116;2023-06-22T03:20:22;17.50;99.90
33328;DHT22;19692;52.998;9.116;2023-06-22T03:22:48;17.50;99.90
33328;DHT22;19692;52.998;9.116;2023-06-22T03:25:14;17.50;99.90
33328;DHT22;19692;52.998;9.116;2023-06-22T03:27:41;17.60;99.90
33328;DHT22;19692;52.998;9.116;2023-06-22T03:30:10;17.60;99.90
33328;DHT22;19692;52.998;9.116;2023-06-22T03:32:36;17.60;99.90
33328;DHT22;19692;52.998;9.116;2023-06-22T03:35:02;17.60;99.90
33328;DHT22;19692;52.998;9.116;2023-06-22T03:37:28;17.40;99.90
33328;DHT22;19692;52.998;9.116;2023-06-22T03:39:54;17.40;99.90
33328;DHT22;19692;52.998;9.116;2023-06-22T03:42:20;17.30;99.90
33328;DHT22;19692;52.998;9.116;2023-06-22T03:44:46;17.20;99.90
33328;DHT22;19692;52.998;9.116;2023-06-22T03:47:12;17.20;99.90
33328;DHT22;19692;52.998;9.116;2023-06-22T03:49:38;17.30;99.90
33328;DHT22;19692;52.998;9.116;2023-06-22T03:52:04;17.30;99.90
33328;DHT22;19692;52.998;9.116;2023-06-22T03:54:30;17.30;99.90
33328;DHT22;19692;52.998;9.116;2023-06-22T03:56:59;17.40;99.90
33328;DHT22;19692;52.998;9.116;2023-06-22T03:59:25;17.50;99.90
33328;DHT22;19692;52.998;9.116;2023-06-22T04:01:50;17.50;99.90
33328;DHT22;19692;52.998;9.116;2023-06-22T04:04:18;17.60;99.90
33328;DHT22;19692;52.998;9.116;2023-06-22T04:06:43;17.60;99.90
33328;DHT22;19692;52.998;9.116;2023-06-22T04:09:09;17.60;99.90
33328;DHT22;19692;52.998;9.116;2023-06-22T04:11:35;17.70;99.90
33328;DHT22;19692;52.998;9.116;2023-06-22T04:14:01;17.80;99.90
33328;DHT22;19692;52.998;9.116;2023-06-22T04:16:27;17.80;99.90
33328;DHT22;19692;52.998;9.116;2023-06-22T04:18:52;17.80;99.90
33328;DHT22;19692;52.998;9.116;2023-06-22T04:21:19;17.90;99.90
33328;DHT22;19692;52.998;9.116;2023-06-22T04:23:45;18.00;99.90
33328;DHT22;19692;52.998;9.116;2023-06-22T04:26:12;18.00;99.90
33328;DHT22;19692;52.998;9.116;2023-06-22T04:28:39;18.00;99.90
33328;DHT22;19692;52.998;9.116;2023-06-22T04:31:05;18.00;99.90
33328;DHT22;19692;52.998;9.116;2023-06-22T04:33:31;18.10;99.90
33328;DHT22;19692;52.998;9.116;2023-06-22T04:35:58;18.10;99.90
33328;DHT22;19692;52.998;9.116;2023-06-22T04:38:26;18.20;99.90
33328;DHT22;19692;52.998;9.116;2023-06-22T04:40:52;18.20;99.90
33328;DHT22;19692;52.998;9.116;2023-06-22T04:43:19;18.30;99.90
33328;DHT22;19692;52.998;9.116;2023-06-22T04:45:44;18.30;99.90
33328;DHT22;19692;52.998;9.116;2023-06-22T04:48:10;18.30;99.90
33328;DHT22;19692;52.998;9.116;2023-06-22T04:50:41;18.40;99.90
33328;DHT22;19692;52.998;9.116;2023-06-22T04:53:07;18.50;99.90
33328;DHT22;19692;52.998;9.116;2023-06-22T04:55:35;18.50;99.90
33328;DHT22;19692;52.998;9.116;2023-06-22T04:58:03;18.40;99.90
33328;DHT22;19692;52.998;9.116;2023-06-22T05:00:31;18.40;99.90
33328;DHT22;19692;52.998;9.116;2023-06-22T05:02:57;18.40;99.90
33328;DHT22;19692;52.998;9.116;2023-06-22T05:05:23;18.50;99.90
33328;DHT22;19692;52.998;9.116;2023-06-22T05:07:51;18.40;99.90
33328;DHT22;19692;52.998;9.116;2023-06-22T05:10:19;18.40;99.90
33328;DHT22;19692;52.998;9.116;2023-06-22T05:12:46;18.40;99.90
33328;DHT22;19692;52.998;9.116;2023-06-22T05:15:12;18.40;99.90
33328;DHT22;19692;52.998;9.116;2023-06-22T05:17:38;18.30;99.90
33328;DHT22;19692;52.998;9.116;2023-06-22T05:20:11;18.40;99.90
33328;DHT22;19692;52.998;9.116;2023-06-22T05:22:38;18.50;99.90
33328;DHT22;19692;52.998;9.116;2023-06-22T05:25:08;18.60;99.90
33328;DHT22;19692;52.998;9.116;2023-06-22T05:27:34;18.70;99.90
33328;DHT22;19692;52.998;9.116;2023-06-22T05:30:05;18.70;99.90
33328;DHT22;19692;52.998;9.116;2023-06-22T05:32:32;18.80;99.90
33328;DHT22;19692;52.998;9.116;2023-06-22T05:34:59;18.90;99.90
33328;DHT22;19692;52.998;9.116;2023-06-22T05:37:25;19.10;99.90
33328;DHT22;19692;52.998;9.116;2023-06-22T05:39:51;19.50;99.90
33328;DHT22;19692;52.998;9.116;2023-06-22T05:42:17;19.60;99.90
33328;DHT22;19692;52.998;9.116;2023-06-22T05:44:43;19.90;99.90
33328;DHT22;19692;52.998;9.116;2023-06-22T05:47:08;20.10;99.90
33328;DHT22;19692;52.998;9.116;2023-06-22T05:49:34;20.20;99.90
33328;DHT22;19692;52.998;9.116;2023-06-22T05:52:00;20.40;99.90
33328;DHT22;19692;52.998;9.116;2023-06-22T05:54:28;20.40;99.90
33328;DHT22;19692;52.998;9.116;2023-06-22T05:56:54;20.60;99.90
33328;DHT22;19692;52.998;9.116;2023-06-22T05:59:19;20.60;99.90
33328;DHT22;19692;52.998;9.116;2023-06-22T06:01:45;20.60;99.90
33328;DHT22;19692;52.998;9.116;2023-06-22T06:04:16;20.70;99.90
33328;DHT22;19692;52.998;9.116;2023-06-22T06:06:42;20.90;99.90
33328;DHT22;19692;52.998;9.116;2023-06-22T06:09:14;21.10;99.90
33328;DHT22;19692;52.998;9.116;2023-06-22T06:11:46;21.20;99.90
33328;DHT22;19692;52.998;9.116;2023-06-22T06:14:27;21.20;99.90
33328;DHT22;19692;52.998;9.116;2023-06-22T06:17:04;21.40;99.90
33328;DHT22;19692;52.998;9.116;2023-06-22T06:19:58;21.50;99.90
33328;DHT22;19692;52.998;9.116;2023-06-22T06:22:24;21.80;99.90
33328;DHT22;19692;52.998;9.116;2023-06-22T06:24:57;22.00;99.90
33328;DHT22;19692;52.998;9.116;2023-06-22T06:27:26;22.20;99.90
33328;DHT22;19692;52.998;9.116;2023-06-22T06:29:54;22.60;99.90
33328;DHT22;19692;52.998;9.116;2023-06-22T06:32:20;22.70;99.90
33328;DHT22;19692;52.998;9.116;2023-06-22T06:34:46;22.80;99.90
33328;DHT22;19692;52.998;9.116;2023-06-22T06:37:11;22.90;99.90
33328;DHT22;19692;52.998;9.116;2023-06-22T06:39:40;23.00;99.90
33328;DHT22;19692;52.998;9.116;2023-06-22T06:42:06;23.10;99.90
33328;DHT22;19692;52.998;9.116;2023-06-22T06:44:32;23.00;99.90
33328;DHT22;19692;52.998;9.116;2023-06-22T06:47:00;22.80;99.90
33328;DHT22;19692;52.998;9.116;2023-06-22T06:49:28;22.60;99.90
33328;DHT22;19692;52.998;9.116;2023-06-22T06:51:58;22.50;99.90
33328;DHT22;19692;52.998;9.116;2023-06-22T06:54:27;22.60;99.90
33328;DHT22;19692;52.998;9.116;2023-06-22T06:56:56;22.70;99.90
33328;DHT22;19692;52.998;9.116;2023-06-22T06:59:25;22.80;99.90
33328;DHT22;19692;52.998;9.116;2023-06-22T07:01:54;22.90;99.90
33328;DHT22;19692;52.998;9.116;2023-06-22T07:04:27;23.00;99.90
33328;DHT22;19692;52.998;9.116;2023-06-22T07:06:56;23.10;99.90
33328;DHT22;19692;52.998;9.116;2023-06-22T07:09:27;23.30;99.90
33328;DHT22;19692;52.998;9.116;2023-06-22T07:12:01;23.60;99.90
33328;DHT22;19692;52.998;9.116;2023-06-22T07:14:27;23.90;99.90
33328;DHT22;19692;52.998;9.116;2023-06-22T07:16:57;24.20;99.90
33328;DHT22;19692;52.998;9.116;2023-06-22T07:19:42;24.40;99.90
33328;DHT22;19692;52.998;9.116;2023-06-22T07:22:15;24.70;99.90
33328;DHT22;19692;52.998;9.116;2023-06-22T07:24:42;24.90;99.90
33328;DHT22;19692;52.998;9.116;2023-06-22T07:27:21;25.00;99.90
33328;DHT22;19692;52.998;9.116;2023-06-22T07:30:00;25.00;99.90
33328;DHT22;19692;52.998;9.116;2023-06-22T07:32:34;24.80;99.90
33328;DHT22;19692;52.998;9.116;2023-06-22T07:35:16;24.80;99.90
33328;DHT22;19692;52.998;9.116;2023-06-22T07:37:42;24.80;99.90
33328;DHT22;19692;52.998;9.116;2023-06-22T07:40:16;24.90;99.90
33328;DHT22;19692;52.998;9.116;2023-06-22T07:43:16;25.00;99.90
33328;DHT22;19692;52.998;9.116;2023-06-22T07:45:49;25.20;99.90
33328;DHT22;19692;52.998;9.116;2023-06-22T07:48:22;25.30;99.90
33328;DHT22;19692;52.998;9.116;2023-06-22T07:50:49;25.50;99.90
33328;DHT22;19692;52.998;9.116;2023-06-22T07:53:22;25.60;99.90
33328;DHT22;19692;52.998;9.116;2023-06-22T07:55:49;25.80;99.90
33328;DHT22;19692;52.998;9.116;2023-06-22T07:58:15;26.00;99.90
33328;DHT22;19692;52.998;9.116;2023-06-22T08:00:44;26.00;99.90
33328;DHT22;19692;52.998;9.116;2023-06-22T08:03:15;26.10;99.90
33328;DHT22;19692;52.998;9.116;2023-06-22T08:05:43;26.10;99.90
33328;DHT22;19692;52.998;9.116;2023-06-22T08:08:18;26.30;99.90
33328;DHT22;19692;52.998;9.116;2023-06-22T08:10:49;26.60;99.90
33328;DHT22;19692;52.998;9.116;2023-06-22T08:13:18;26.90;99.90
33328;DHT22;19692;52.998;9.116;2023-06-22T08:15:44;27.00;99.90
33328;DHT22;19692;52.998;9.116;2023-06-22T08:18:10;26.80;99.90
33328;DHT22;19692;52.998;9.116;2023-06-22T08:20:55;26.80;99.90
33328;DHT22;19692;52.998;9.116;2023-06-22T08:23:21;27.10;99.90
33328;DHT22;19692;52.998;9.116;2023-06-22T08:25:47;27.30;99.90
33328;DHT22;19692;52.998;9.116;2023-06-22T08:28:15;27.50;99.90
33328;DHT22;19692;52.998;9.116;2023-06-22T08:30:41;27.60;99.90
33328;DHT22;19692;52.998;9.116;2023-06-22T08:33:12;27.70;99.90
33328;DHT22;19692;52.998;9.116;2023-06-22T08:35:38;27.70;99.90
33328;DHT22;19692;52.998;9.116;2023-06-22T08:38:07;27.70;99.90
33328;DHT22;19692;52.998;9.116;2023-06-22T08:40:48;27.50;99.90
33328;DHT22;19692;52.998;9.116;2023-06-22T08:43:14;27.40;99.90
33328;DHT22;19692;52.998;9.116;2023-06-22T08:45:45;27.40;99.90
33328;DHT22;19692;52.998;9.116;2023-06-22T08:48:17;27.30;99.90
33328;DHT22;19692;52.998;9.116;2023-06-22T08:50:43;27.20;99.90
33328;DHT22;19692;52.998;9.116;2023-06-22T08:53:12;27.30;99.90
33328;DHT22;19692;52.998;9.116;2023-06-22T08:55:41;27.60;99.90
33328;DHT22;19692;52.998;9.116;2023-06-22T08:58:24;27.80;99.90
33328;DHT22;19692;52.998;9.116;2023-06-22T09:00:50;28.00;99.90
33328;DHT22;19692;52.998;9.116;2023-06-22T09:03:19;28.10;99.90
33328;DHT22;19692;52.998;9.116;2023-06-22T09:06:07;28.30;99.90
33328;DHT22;19692;52.998;9.116;2023-06-22T09:08:36;28.70;99.90
33328;DHT22;19692;52.998;9.116;2023-06-22T09:11:02;29.00;99.90
33328;DHT22;19692;52.998;9.116;2023-06-22T09:13:36;29.00;99.90
33328;DHT22;19692;52.998;9.116;2023-06-22T09:16:30;29.20;99.90
33328;DHT22;19692;52.998;9.116;2023-06-22T09:18:56;29.10;99.90
33328;DHT22;19692;52.998;9.116;2023-06-22T09:21:24;29.30;99.90
33328;DHT22;19692;52.998;9.116;2023-06-22T09:23:49;29.40;99.90
33328;DHT22;19692;52.998;9.116;2023-06-22T09:26:18;29.50;99.90
33328;DHT22;19692;52.998;9.116;2023-06-22T09:28:44;29.70;99.90
33328;DHT22;19692;52.998;9.116;2023-06-22T09:31:13;29.80;99.90
33328;DHT22;19692;52.998;9.116;2023-06-22T09:33:40;29.80;99.90
33328;DHT22;19692;52.998;9.116;2023-06-22T09:36:06;29.70;99.90
33328;DHT22;19692;52.998;9.116;2023-06-22T09:38:45;29.60;99.90
33328;DHT22;19692;52.998;9.116;2023-06-22T09:41:28;29.80;99.90
33328;DHT22;19692;52.998;9.116;2023-06-22T09:43:57;30.10;99.90
33328;DHT22;19692;52.998;9.116;2023-06-22T09:46:27;30.30;99.90
33328;DHT22;19692;52.998;9.116;2023-06-22T09:48:54;30.60;99.90
33328;DHT22;19692;52.998;9.116;2023-06-22T09:51:19;30.60;99.90
33328;DHT22;19692;52.998;9.116;2023-06-22T09:53:47;30.80;99.90
33328;DHT22;19692;52.998;9.116;2023-06-22T09:56:13;30.80;99.90
33328;DHT22;19692;52.998;9.116;2023-06-22T09:58:44;30.90;99.90
33328;DHT22;19692;52.998;9.116;2023-06-22T10:01:11;31.10;99.90
33328;DHT22;19692;52.998;9.116;2023-06-22T10:03:39;31.10;99.90
33328;DHT22;19692;52.998;9.116;2023-06-22T10:06:06;31.10;99.90
33328;DHT22;19692;52.998;9.116;2023-06-22T10:08:32;31.10;99.90
33328;DHT22;19692;52.998;9.116;2023-06-22T10:10:58;31.30;99.90
33328;DHT22;19692;52.998;9.116;2023-06-22T10:13:24;31.40;99.90
33328;DHT22;19692;52.998;9.116;2023-06-22T10:15:50;31.90;99.90
33328;DHT22;19692;52.998;9.116;2023-06-22T10:18:17;32.10;99.90
33328;DHT22;19692;52.998;9.116;2023-06-22T10:20:43;31.80;99.90
33328;DHT22;19692;52.998;9.116;2023-06-22T10:23:10;31.60;99.90
33328;DHT22;19692;52.998;9.116;2023-06-22T10:25:36;31.30;99.90
33328;DHT22;19692;52.998;9.116;2023-06-22T10:28:01;30.90;99.90
33328;DHT22;19692;52.998;9.116;2023-06-22T10:30:27;30.70;99.90
33328;DHT22;19692;52.998;9.116;2023-06-22T10:32:54;30.60;99.90
33328;DHT22;19692;52.998;9.116;2023-06-22T10:35:23;30.80;99.90
33328;DHT22;19692;52.998;9.116;2023-06-22T10:37:49;30.80;99.90
33328;DHT22;19692;52.998;9.116;2023-06-22T10:40:16;30.60;99.90
33328;DHT22;19692;52.998;9.116;2023-06-22T10:42:42;30.20;99.90
33328;DHT22;19692;52.998;9.116;2023-06-22T10:45:08;30.20;99.90
33328;DHT22;19692;52.998;9.116;2023-06-22T10:47:34;30.20;99.90
33328;DHT22;19692;52.998;9.116;2023-06-22T10:50:01;30.20;99.90
33328;DHT22;19692;52.998;9.116;2023-06-22T10:52:27;30.20;99.90
33328;DHT22;19692;52.998;9.116;2023-06-22T10:54:52;30.10;99.90
33328;DHT22;19692;52.998;9.116;2023-06-22T10:57:18;30.10;99.90
33328;DHT22;19692;52.998;9.116;2023-06-22T10:59:44;29.90;99.90
33328;DHT22;19692;52.998;9.116;2023-06-22T11:02:18;29.80;99.90
33328;DHT22;19692;52.998;9.116;2023-06-22T11:04:43;29.60;99.90
33328;DHT22;19692;52.998;9.116;2023-06-22T11:07:09;29.40;99.90
33328;DHT22;19692;52.998;9.116;2023-06-22T11:09:35;29.20;99.90
33328;DHT22;19692;52.998;9.116;2023-06-22T11:12:01;29.10;99.90
33328;DHT22;19692;52.998;9.116;2023-06-22T11:14:27;29.00;99.90
33328;DHT22;19692;52.998;9.116;2023-06-22T11:16:53;29.00;99.90
33328;DHT22;19692;52.998;9.116;2023-06-22T11:19:18;28.80;99.90
33328;DHT22;19692;52.998;9.116;2023-06-22T11:21:44;28.70;99.90
33328;DHT22;19692;52.998;9.116;2023-06-22T11:24:10;28.80;99.90
33328;DHT22;19692;52.998;9.116;2023-06-22T11:26:36;28.70;99.90
33328;DHT22;19692;52.998;9.116;2023-06-22T11:29:02;28.80;99.90
33328;DHT22;19692;52.998;9.116;2023-06-22T11:31:32;28.80;99.90
33328;DHT22;19692;52.998;9.116;2023-06-22T11:33:58;28.80;99.90
33328;DHT22;19692;52.998;9.116;2023-06-22T11:36:25;28.80;99.90
33328;DHT22;19692;52.998;9.116;2023-06-22T11:38:50;29.00;99.90
33328;DHT22;19692;52.998;9.116;2023-06-22T11:41:16;28.80;99.90
33328;DHT22;19692;52.998;9.116;2023-06-22T11:43:42;29.00;99.90
33328;DHT22;19692;52.998;9.116;2023-06-22T11:46:08;29.20;99.90
33328;DHT22;19692;52.998;9.116;2023-06-22T11:48:34;29.30;99.90
33328;DHT22;19692;52.998;9.116;2023-06-22T11:50:59;29.40;99.90
33328;DHT22;19692;52.998;9.116;2023-06-22T11:53:27;29.60;99.90
33328;DHT22;19692;52.998;9.116;2023-06-22T11:55:53;29.80;99.90
33328;DHT22;19692;52.998;9.116;2023-06-22T11:58:20;29.80;99.90
33328;DHT22;19692;52.998;9.116;2023-06-22T12:00:47;29.80;99.90
33328;DHT22;19692;52.998;9.116;2023-06-22T12:03:13;29.60;99.90
33328;DHT22;19692;52.998;9.116;2023-06-22T12:05:40;29.50;99.90
33328;DHT22;19692;52.998;9.116;2023-06-22T12:08:06;29.40;99.90
33328;DHT22;19692;52.998;9.116;2023-06-22T12:10:32;29.40;99.90
33328;DHT22;19692;52.998;9.116;2023-06-22T12:12:58;29.40;99.90
33328;DHT22;19692;52.998;9.116;2023-06-22T12:15:25;29.30;99.90
33328;DHT22;19692;52.998;9.116;2023-06-22T12:17:52;29.30;99.90
33328;DHT22;19692;52.998;9.116;2023-06-22T12:20:18;29.20;99.90
33328;DHT22;19692;52.998;9.116;2023-06-22T12:22:44;29.00;99.90
33328;DHT22;19692;52.998;9.116;2023-06-22T12:25:10;28.80;99.90
33328;DHT22;19692;52.998;9.116;2023-06-22T12:27:36;29.00;99.90
33328;DHT22;19692;52.998;9.116;2023-06-22T12:30:03;29.20;99.90
33328;DHT22;19692;52.998;9.116;2023-06-22T12:32:29;29.20;99.90
33328;DHT22;19692;52.998;9.116;2023-06-22T12:34:55;29.10;99.90
33328;DHT22;19692;52.998;9.116;2023-06-22T12:37:22;28.80;99.90
33328;DHT22;19692;52.998;9.116;2023-06-22T12:39:48;28.80;99.90
33328;DHT22;19692;52.998;9.116;2023-06-22T12:42:14;28.70;99.90
33328;DHT22;19692;52.998;9.116;2023-06-22T12:44:40;28.50;99.90
33328;DHT22;19692;52.998;9.116;2023-06-22T12:47:06;28.60;99.90
33328;DHT22;19692;52.998;9.116;2023-06-22T12:49:34;28.50;99.90
33328;DHT22;19692;52.998;9.116;2023-06-22T12:52:08;28.40;99.90
33328;DHT22;19692;52.998;9.116;2023-06-22T12:54:34;28.50;99.90
33328;DHT22;19692;52.998;9.116;2023-06-22T12:56:59;28.40;99.90
33328;DHT22;19692;52.998;9.116;2023-06-22T12:59:25;28.40;99.90
33328;DHT22;19692;52.998;9.116;2023-06-22T13:01:51;28.60;99.90
33328;DHT22;19692;52.998;9.116;2023-06-22T13:04:16;28.60;99.90
33328;DHT22;19692;52.998;9.116;2023-06-22T13:06:45;28.60;99.90
33328;DHT22;19692;52.998;9.116;2023-06-22T13:09:15;28.60;99.90
33328;DHT22;19692;52.998;9.116;2023-06-22T13:11:44;28.50;99.90
33328;DHT22;19692;52.998;9.116;2023-06-22T13:14:10;28.50;99.90
33328;DHT22;19692;52.998;9.116;2023-06-22T13:16:36;28.50;99.90
33328;DHT22;19692;52.998;9.116;2023-06-22T13:19:02;28.60;99.90
33328;DHT22;19692;52.998;9.116;2023-06-22T13:21:28;28.80;99.90
33328;DHT22;19692;52.998;9.116;2023-06-22T13:23:54;29.00;99.90
33328;DHT22;19692;52.998;9.116;2023-06-22T13:26:20;29.10;99.90
33328;DHT22;19692;52.998;9.116;2023-06-22T13:28:46;28.90;99.90
33328;DHT22;19692;52.998;9.116;2023-06-22T13:31:12;28.80;99.90
33328;DHT22;19692;52.998;9.116;2023-06-22T13:33:38;28.60;99.90
33328;DHT22;19692;52.998;9.116;2023-06-22T13:36:06;28.50;99.90
33328;DHT22;19692;52.998;9.116;2023-06-22T13:38:32;28.40;99.90
33328;DHT22;19692;52.998;9.116;2023-06-22T13:40:59;28.20;99.90
33328;DHT22;19692;52.998;9.116;2023-06-22T13:43:27;28.20;99.90
33328;DHT22;19692;52.998;9.116;2023-06-22T13:45:52;28.30;99.90
33328;DHT22;19692;52.998;9.116;2023-06-22T13:48:18;28.20;99.90
33328;DHT22;19692;52.998;9.116;2023-06-22T13:50:44;28.10;99.90
33328;DHT22;19692;52.998;9.116;2023-06-22T13:53:10;28.00;99.90
33328;DHT22;19692;52.998;9.116;2023-06-22T13:55:35;27.90;99.90
33328;DHT22;19692;52.998;9.116;2023-06-22T13:58:01;27.90;99.90
33328;DHT22;19692;52.998;9.116;2023-06-22T14:00:27;27.80;99.90
33328;DHT22;19692;52.998;9.116;2023-06-22T14:02:53;27.80;99.90
33328;DHT22;19692;52.998;9.116;2023-06-22T14:05:20;27.70;99.90
33328;DHT22;19692;52.998;9.116;2023-06-22T14:07:45;27.70;99.90
33328;DHT22;19692;52.998;9.116;2023-06-22T14:10:11;27.60;99.90
33328;DHT22;19692;52.998;9.116;2023-06-22T14:12:37;27.60;99.90
33328;DHT22;19692;52.998;9.116;2023-06-22T14:15:03;27.50;99.90
33328;DHT22;19692;52.998;9.116;2023-06-22T14:17:32;27.40;99.90
33328;DHT22;19692;52.998;9.116;2023-06-22T14:20:00;27.40;99.90
33328;DHT22;19692;52.998;9.116;2023-06-22T14:22:26;27.30;99.90
33328;DHT22;19692;52.998;9.116;2023-06-22T14:24:54;27.10;99.90
33328;DHT22;19692;52.998;9.116;2023-06-22T14:27:21;27.10;99.90
33328;DHT22;19692;52.998;9.116;2023-06-22T14:29:47;27.00;99.90
33328;DHT22;19692;52.998;9.116;2023-06-22T14:32:12;27.00;99.90
33328;DHT22;19692;52.998;9.116;2023-06-22T14:34:38;26.90;99.90
33328;DHT22;19692;52.998;9.116;2023-06-22T14:37:07;26.70;99.90
33328;DHT22;19692;52.998;9.116;2023-06-22T14:39:35;26.70;99.90
33328;DHT22;19692;52.998;9.116;2023-06-22T14:42:01;26.60;99.90
33328;DHT22;19692;52.998;9.116;2023-06-22T14:44:29;26.50;99.90
33328;DHT22;19692;52.998;9.116;2023-06-22T14:46:55;26.50;99.90
33328;DHT22;19692;52.998;9.116;2023-06-22T14:49:21;26.50;99.90
33328;DHT22;19692;52.998;9.116;2023-06-22T14:51:47;26.30;99.90
33328;DHT22;19692;52.998;9.116;2023-06-22T14:54:13;26.10;99.90
33328;DHT22;19692;52.998;9.116;2023-06-22T14:56:39;26.00;99.90
33328;DHT22;19692;52.998;9.116;2023-06-22T14:59:04;26.00;99.90
33328;DHT22;19692;52.998;9.116;2023-06-22T15:01:30;25.90;99.90
33328;DHT22;19692;52.998;9.116;2023-06-22T15:03:56;25.90;99.90
33328;DHT22;19692;52.998;9.116;2023-06-22T15:06:24;25.80;99.90
33328;DHT22;19692;52.998;9.116;2023-06-22T15:08:50;25.80;99.90
33328;DHT22;19692;52.998;9.116;2023-06-22T15:11:16;25.80;99.90
33328;DHT22;19692;52.998;9.116;2023-06-22T15:13:44;25.70;99.90
33328;DHT22;19692;52.998;9.116;2023-06-22T15:16:10;25.50;99.90
33328;DHT22;19692;52.998;9.116;2023-06-22T15:18:36;25.40;99.90
33328;DHT22;19692;52.998;9.116;2023-06-22T15:21:03;25.40;99.90
33328;DHT22;19692;52.998;9.116;2023-06-22T15:23:30;25.20;99.90
33328;DHT22;19692;52.998;9.116;2023-06-22T15:25:56;25.00;99.90
33328;DHT22;19692;52.998;9.116;2023-06-22T15:28:23;24.90;99.90
33328;DHT22;19692;52.998;9.116;2023-06-22T15:30:49;24.70;99.90
33328;DHT22;19692;52.998;9.116;2023-06-22T15:33:16;24.50;99.90
33328;DHT22;19692;52.998;9.116;2023-06-22T15:35:42;24.30;99.90
33328;DHT22;19692;52.998;9.116;2023-06-22T15:38:07;23.90;99.90
33328;DHT22;19692;52.998;9.116;2023-06-22T15:40:33;23.80;99.90
33328;DHT22;19692;52.998;9.116;2023-06-22T15:42:59;23.70;99.90